Аэропорт: Гумрак. Волгоград

ICAO: URWW

METAR:
2018/07/16 20:00
URWW 162000Z 14001MPS 4100 -SHRA SCT009 BKN040CB 20/20 Q1002 R06/290060 TEMPO -TSRAGR BKN004 BKN030CB RMK OBST OBSC
METAR:
2015/12/24 15:15
TAF COR TAF COR URWW 241510Z 2415/2524 30013G18MPS 9999 BKN007 SCT020CB BKN100 
      TEMPO 2415/2421 27008G13MPS 2100 -SHRA BR